Time;durP1;ratioP1;P1;durP2;ratioP2;P2;SDS_P1;SDS_P2;PMS_P1;PMS_P2;Temp;Humidity;BMP_temperature;BMP_pressure;BME280_temperature;BME280_humidity;BME280_pressure;Samples;Min_cycle;Max_cycle;Signal;HPM_P1;HPM_P2
2022/12/12 00:00:24;;;;;;;24.03;12.30;;;;;;;-5.01;100.00;95030.63;1051930;28;20032;-67
2022/12/12 00:00:55;;;;;;;24.37;11.53;;;;;;;-5.01;100.00;95027.28;1051547;28;20032;-68
2022/12/12 00:01:27;;;;;;;26.00;12.60;;;;;;;-4.98;100.00;95029.47;1043481;28;20021;-69
2022/12/12 00:01:57;;;;;;;23.20;12.02;;;;;;;-4.97;100.00;95029.28;1039250;28;20131;-68
2022/12/12 00:02:28;;;;;;;22.63;11.63;;;;;;;-4.94;100.00;95025.56;1034436;28;20038;-71
2022/12/12 00:02:58;;;;;;;23.13;12.23;;;;;;;-4.91;100.00;95032.09;1039830;28;20026;-67
2022/12/12 00:03:29;;;;;;;20.83;12.03;;;;;;;-4.93;100.00;95034.03;1047483;28;20086;-70
2022/12/12 00:03:59;;;;;;;23.87;12.33;;;;;;;-4.93;100.00;95029.72;1051955;28;20027;-69
2022/12/12 00:04:30;;;;;;;24.63;13.07;;;;;;;-4.87;100.00;95030.75;1043066;28;20442;-67
2022/12/12 00:05:00;;;;;;;24.47;11.90;;;;;;;-4.86;100.00;95032.31;1047550;28;20032;-68
2022/12/12 00:05:31;;;;;;;26.20;12.27;;;;;;;-4.83;100.00;95032.78;1047584;28;20037;-70
2022/12/12 00:06:03;;;;;;;26.47;12.60;;;;;;;-4.87;100.00;95030.75;1047467;28;20519;-71
2022/12/12 00:06:34;;;;;;;30.13;12.85;;;;;;;-4.86;100.00;95032.31;1051989;28;20485;-71
2022/12/12 00:07:04;;;;;;;23.73;11.90;;;;;;;-4.83;100.00;95032.78;1052005;28;20028;-67
2022/12/12 00:07:35;;;;;;;28.00;13.17;;;;;;;-4.85;100.00;95029.59;1047106;28;20108;-69
2022/12/12 00:08:05;;;;;;;21.73;11.50;;;;;;;-4.86;100.00;95034.88;1043687;28;20021;-67
2022/12/12 00:08:36;;;;;;;22.47;12.13;;;;;;;-4.85;100.00;95028.81;1039067;28;20028;-69
2022/12/12 00:09:08;;;;;;;27.97;13.10;;;;;;;-4.88;100.00;95035.09;1039605;28;20025;-68
2022/12/12 00:09:39;;;;;;;26.13;13.05;;;;;;;-4.86;100.00;95027.22;1039230;28;20475;-66
2022/12/12 00:10:10;;;;;;;25.10;12.93;;;;;;;-4.87;100.00;95031.53;1039589;28;20052;-67
2022/12/12 00:10:40;;;;;;;27.90;12.83;;;;;;;-4.86;100.00;95032.31;1043730;28;20704;-70
2022/12/12 00:11:11;;;;;;;24.87;12.63;;;;;;;-4.90;100.00;95033.66;1047535;28;20025;-68
2022/12/12 00:11:41;;;;;;;28.03;13.20;;;;;;;-4.87;100.00;95033.31;1047354;28;20482;-69
2022/12/12 00:12:12;;;;;;;25.90;12.53;;;;;;;-4.86;100.00;95030.59;1043087;28;20018;-68
2022/12/12 00:12:42;;;;;;;28.70;11.83;;;;;;;-4.87;100.00;95034.09;1042892;28;20159;-68
2022/12/12 00:13:13;;;;;;;26.13;11.73;;;;;;;-4.87;100.00;95028.19;1043379;28;20044;-68
2022/12/12 00:13:43;;;;;;;22.20;12.83;;;;;;;-4.85;100.00;95034.72;1043597;28;20021;-69
2022/12/12 00:14:14;;;;;;;23.63;12.20;;;;;;;-4.84;100.00;95027.81;1039352;28;20025;-70
2022/12/12 00:14:44;;;;;;;24.10;11.33;;;;;;;-4.88;100.00;95029.97;1043087;28;20499;-69
2022/12/12 00:15:15;;;;;;;27.53;13.03;;;;;;;-4.86;100.00;95032.31;1043281;28;20088;-67
2022/12/12 00:15:46;;;;;;;29.20;11.93;;;;;;;-4.87;100.00;95026.41;1035231;28;20388;-67
2022/12/12 00:16:16;;;;;;;24.77;12.27;;;;;;;-4.84;100.00;95028.63;1043514;28;20029;-68
2022/12/12 00:16:50;;;;;;;23.85;11.95;;;;;;;-4.84;100.00;95033.72;1047424;28;20115;-68
2022/12/12 00:17:20;;;;;;;22.47;10.97;;;;;;;-4.85;100.00;95031.38;1048043;28;20021;-68
2022/12/12 00:17:51;;;;;;;22.20;12.33;;;;;;;-4.88;100.00;95032.53;1051922;28;20020;-68
2022/12/12 00:18:21;;;;;;;24.50;11.93;;;;;;;-4.90;100.00;95031.13;1052036;28;20020;-67
2022/12/12 00:18:52;;;;;;;27.40;13.30;;;;;;;-4.92;100.00;95027.97;1052074;28;20032;-68
2022/12/12 00:19:22;;;;;;;23.27;11.47;;;;;;;-4.94;100.00;95032.47;1051631;28;20141;-68
2022/12/12 00:19:53;;;;;;;22.13;11.80;;;;;;;-4.92;100.00;95026.19;1051495;28;20059;-69
2022/12/12 00:20:23;;;;;;;28.77;12.33;;;;;;;-4.88;100.00;95029.97;1047735;28;20646;-68
2022/12/12 00:20:57;;;;;;;24.52;12.18;;;;;;;-4.89;100.00;95032.72;1043724;28;20022;-68
2022/12/12 00:21:28;;;;;;;28.50;12.77;;;;;;;-4.87;100.00;95028.19;1043122;28;20037;-69
2022/12/12 00:21:58;;;;;;;22.83;11.20;;;;;;;-4.84;100.00;95033.72;1040027;28;20067;-68
2022/12/12 00:22:29;;;;;;;22.67;11.40;;;;;;;-4.87;100.00;95030.75;1042507;28;20039;-71
2022/12/12 00:22:59;;;;;;;25.60;11.97;;;;;;;-4.88;100.00;95036.84;1044830;28;20017;-68
2022/12/12 00:23:30;;;;;;;23.57;11.60;;;;;;;-4.87;100.00;95026.41;1051472;28;20024;-69
2022/12/12 00:24:00;;;;;;;25.47;12.27;;;;;;;-4.87;100.00;95036.66;1051587;28;20112;-69
2022/12/12 00:24:31;;;;;;;26.23;12.57;;;;;;;-4.90;100.00;95031.13;1047719;28;20028;-68
2022/12/12 00:25:01;;;;;;;22.50;11.10;;;;;;;-4.90;100.00;95031.13;1047171;28;20024;-68
2022/12/12 00:25:32;;;;;;;23.73;11.47;;;;;;;-4.92;100.00;95038.19;1047032;28;20048;-68
2022/12/12 00:26:04;;;;;;;20.77;11.23;;;;;;;-4.99;100.00;95028.69;1047830;28;20032;-71
2022/12/12 00:26:35;;;;;;;23.55;11.70;;;;;;;-4.97;100.00;95034.41;1047221;28;20119;-70
2022/12/12 00:27:06;;;;;;;22.83;11.83;;;;;;;-4.97;100.00;95034.41;1047583;28;20036;-68
2022/12/12 00:27:39;;;;;;;21.55;11.80;;;;;;;-4.92;100.00;95036.44;1043139;28;20982;-68
2022/12/12 00:28:09;;;;;;;21.83;12.13;;;;;;;-4.92;100.00;95033.09;1044015;28;20063;-67
2022/12/12 00:28:40;;;;;;;26.13;12.10;;;;;;;-4.92;100.00;95030.53;1047648;28;20637;-69
2022/12/12 00:29:10;;;;;;;22.73;11.40;;;;;;;-4.94;100.00;95029.91;1047788;28;20031;-68
2022/12/12 00:29:40;;;;;;;24.27;12.70;;;;;;;-4.93;100.00;95031.47;1047128;28;20146;-67
2022/12/12 00:30:11;;;;;;;23.73;11.33;;;;;;;-4.94;100.00;95037.59;1047732;28;20258;-68
2022/12/12 00:30:42;;;;;;;24.67;12.13;;;;;;;-4.97;100.00;95036.97;1051527;28;20020;-67
2022/12/12 00:31:13;;;;;;;23.03;11.40;;;;;;;-4.94;100.00;95032.47;1047872;28;20023;-70
2022/12/12 00:31:43;;;;;;;21.50;11.63;;;;;;;-4.97;100.00;95026.72;1046985;28;20516;-67
2022/12/12 00:32:13;;;;;;;22.77;12.17;;;;;;;-4.97;100.00;95036.16;1046850;28;20476;-66
2022/12/12 00:32:44;;;;;;;24.03;11.00;;;;;;;-4.95;100.00;95036.00;1047169;28;20048;-69
2022/12/12 00:33:14;;;;;;;23.70;11.43;;;;;;;-4.95;100.00;95031.69;1050195;28;20425;-69
2022/12/12 00:33:47;;;;;;;24.37;12.37;;;;;;;-4.93;100.00;95031.47;1049950;28;20038;-70
2022/12/12 00:34:17;;;;;;;27.33;12.65;;;;;;;-4.95;100.00;95034.22;1046792;28;20032;-68
2022/12/12 00:34:48;;;;;;;23.23;11.73;;;;;;;-4.95;100.00;95028.34;1039313;28;20044;-69
2022/12/12 00:35:19;;;;;;;20.57;11.43;;;;;;;-4.93;100.00;95039.16;1035079;28;20026;-70
2022/12/12 00:35:50;;;;;;;21.37;11.77;;;;;;;-4.94;100.00;95029.91;1035219;28;20112;-67
2022/12/12 00:36:22;;;;;;;23.15;12.40;;;;;;;-4.96;100.00;95030.09;1035426;28;20010;-70
2022/12/12 00:36:53;;;;;;;25.58;12.27;;;;;;;-4.95;100.00;95030.88;1043813;28;20037;-69
2022/12/12 00:37:23;;;;;;;20.53;10.80;;;;;;;-4.94;100.00;95040.13;1047069;28;20037;-68
2022/12/12 00:37:54;;;;;;;25.43;12.70;;;;;;;-5.10;100.00;95011.25;1047568;28;20028;-70
2022/12/12 00:38:24;;;;;;;22.93;10.73;;;;;;;-4.95;100.00;95034.22;1051130;28;20040;-68
2022/12/12 00:38:55;;;;;;;31.97;11.80;;;;;;;-5.09;100.00;95014.63;1051316;28;20476;-71
2022/12/12 00:39:25;;;;;;;24.80;12.10;;;;;;;-4.98;100.00;95030.28;1047700;28;20032;-67
2022/12/12 00:39:56;;;;;;;22.33;12.07;;;;;;;-4.98;100.00;95032.03;1046800;28;20020;-67
2022/12/12 00:40:26;;;;;;;26.20;12.93;;;;;;;-4.95;100.00;95039.34;1044128;28;20486;-67
2022/12/12 00:40:58;;;;;;;22.17;11.23;;;;;;;-4.92;100.00;95038.19;1051700;28;20583;-70
2022/12/12 00:41:28;;;;;;;20.70;12.00;;;;;;;-4.95;100.00;95033.44;1051875;28;20032;-70
2022/12/12 00:41:58;;;;;;;26.00;12.77;;;;;;;-4.96;100.00;95030.09;1051647;28;20028;-67
2022/12/12 00:42:29;;;;;;;23.37;11.77;;;;;;;-4.97;100.00;95029.28;1051283;28;20042;-70
2022/12/12 00:42:59;;;;;;;25.73;12.27;;;;;;;-4.95;100.00;95029.13;1051833;28;20043;-68
2022/12/12 00:43:30;;;;;;;24.13;12.40;;;;;;;-4.91;100.00;95037.22;1052192;28;20024;-68
2022/12/12 00:44:00;;;;;;;26.30;12.53;;;;;;;-4.95;100.00;95033.44;1051912;28;20024;-68
2022/12/12 00:44:33;;;;;;;27.97;11.40;;;;;;;-4.96;100.00;95032.66;1047351;28;20035;-70
2022/12/12 00:45:04;;;;;;;23.00;11.73;;;;;;;-4.95;100.00;95036.00;1047873;28;20429;-69
2022/12/12 00:45:36;;;;;;;25.50;13.00;;;;;;;-5.08;100.00;95019.56;1047789;28;20040;-70
2022/12/12 00:46:06;;;;;;;24.15;12.40;;;;;;;-5.01;100.00;95030.63;1047791;28;20078;-67
2022/12/12 00:46:37;;;;;;;31.47;12.13;;;;;;;-4.98;100.00;95030.28;1047619;28;20036;-69
2022/12/12 00:47:07;;;;;;;27.23;12.50;;;;;;;-4.97;100.00;95033.63;1047213;28;20478;-72
2022/12/12 00:47:38;;;;;;;26.70;12.60;;;;;;;-4.99;100.00;95028.69;1039281;28;20025;-70
2022/12/12 00:48:08;;;;;;;22.63;11.63;;;;;;;-4.99;100.00;95027.91;1042690;28;20036;-68
2022/12/12 00:48:39;;;;;;;25.37;12.03;;;;;;;-5.00;100.00;95029.69;1043214;28;20032;-70
2022/12/12 00:49:09;;;;;;;23.10;12.30;;;;;;;-4.99;100.00;95033.81;1046210;28;20569;-67
2022/12/12 00:49:40;;;;;;;24.17;12.83;;;;;;;-5.00;100.00;95029.69;1047374;28;20054;-67
2022/12/12 00:50:10;;;;;;;25.57;12.77;;;;;;;-5.03;100.00;95027.47;1047306;28;20031;-69
2022/12/12 00:50:41;;;;;;;27.73;12.23;;;;;;;-5.01;100.00;95025.50;1051595;28;20049;-68
2022/12/12 00:51:17;;;;;;;22.27;12.07;;;;;;;-5.02;100.00;95029.06;1051527;28;20110;-69
2022/12/12 00:51:47;;;;;;;27.85;12.40;;;;;;;-5.01;100.00;95029.84;1051779;28;20066;-68
2022/12/12 00:52:18;;;;;;;26.83;13.40;;;;;;;-5.03;100.00;95032.59;1049870;28;20036;-67
2022/12/12 00:52:48;;;;;;;26.50;13.00;;;;;;;-5.03;100.00;95036.91;1047245;28;20059;-67
2022/12/12 00:53:19;;;;;;;24.27;12.17;;;;;;;-5.05;100.00;95031.97;1043782;28;20056;-69
2022/12/12 00:53:49;;;;;;;24.37;11.73;;;;;;;-5.23;100.00;95006.06;1043185;28;20055;-69
2022/12/12 00:54:20;;;;;;;22.77;12.70;;;;;;;-5.06;100.00;95032.97;1046538;28;20024;-71
2022/12/12 00:54:50;;;;;;;23.97;11.87;;;;;;;-5.05;100.00;95031.19;1047346;28;20062;-68
2022/12/12 00:55:21;;;;;;;20.30;11.40;;;;;;;-5.05;100.00;95031.97;1051317;28;20050;-68
2022/12/12 00:55:58;;;;;;;23.35;11.57;;;;;;;-5.03;100.00;95042.00;1047538;28;20062;-67
2022/12/12 00:56:29;;;;;;;24.48;12.15;;;;;;;-5.02;100.00;95044.41;1051284;28;20038;-68
2022/12/12 00:57:00;;;;;;;24.63;12.17;;;;;;;-5.00;100.00;95032.25;1047146;28;20028;-70
2022/12/12 00:57:30;;;;;;;25.70;12.93;;;;;;;-5.03;100.00;95031.78;1048511;28;20044;-68
2022/12/12 00:58:01;;;;;;;26.17;12.77;;;;;;;-5.06;100.00;95032.97;1051428;28;20032;-68
2022/12/12 00:58:31;;;;;;;28.23;12.20;;;;;;;-5.07;100.00;95035.69;1051819;28;20489;-70
2022/12/12 00:59:02;;;;;;;24.90;12.23;;;;;;;-5.07;100.00;95033.13;1050682;28;20028;-68
2022/12/12 00:59:33;;;;;;;23.13;12.50;;;;;;;-5.09;100.00;95030.78;1050505;28;20025;-68
2022/12/12 01:00:06;;;;;;;31.90;12.63;;;;;;;-5.24;100.00;95004.47;1052058;28;20071;-67
2022/12/12 01:00:40;;;;;;;26.55;12.45;;;;;;;-5.11;100.00;95032.72;1042049;28;20068;-71
2022/12/12 01:01:20;;;;;;;27.50;13.57;;;;;;;-5.09;100.00;95027.44;1042574;28;20526;-67
2022/12/12 01:01:53;;;;;;;26.10;12.65;;;;;;;-5.15;100.00;95031.50;1043046;28;20391;-68
2022/12/12 01:02:23;;;;;;;27.67;13.33;;;;;;;-5.18;100.00;95023.41;1042914;28;20068;-70
2022/12/12 01:02:57;;;;;;;28.87;13.50;;;;;;;-5.18;100.00;95031.06;1047154;28;20062;-71
2022/12/12 01:03:27;;;;;;;26.85;13.15;;;;;;;-5.19;100.00;95026.94;1044017;28;20051;-70
2022/12/12 01:03:58;;;;;;;25.97;12.90;;;;;;;-5.22;100.00;95028.09;1043209;28;20040;-69
2022/12/12 01:04:29;;;;;;;26.63;12.77;;;;;;;-5.25;100.00;95028.44;1043009;28;20107;-71
2022/12/12 01:04:59;;;;;;;27.37;12.77;;;;;;;-5.27;100.00;95028.63;1043069;28;20064;-67
2022/12/12 01:05:30;;;;;;;26.53;12.40;;;;;;;-5.30;100.00;95033.28;1047466;28;20103;-70
2022/12/12 01:06:00;;;;;;;29.10;13.13;;;;;;;-5.27;100.00;95035.50;1048996;28;20028;-69
2022/12/12 01:06:31;;;;;;;29.23;13.50;;;;;;;-5.30;100.00;95040.97;1051324;28;20064;-67
2022/12/12 01:07:01;;;;;;;27.27;12.67;;;;;;;-5.34;100.00;95035.44;1047275;28;20032;-68
2022/12/12 01:07:32;;;;;;;25.80;12.50;;;;;;;-5.33;100.00;95041.31;1047119;28;20480;-72
2022/12/12 01:08:02;;;;;;;26.03;13.33;;;;;;;-5.34;100.00;95035.44;1047497;28;20019;-68
2022/12/12 01:08:33;;;;;;;25.53;13.10;;;;;;;-5.35;100.00;95038.97;1051419;28;20039;-67
2022/12/12 01:09:03;;;;;;;27.80;12.67;;;;;;;-5.32;100.00;95038.59;1051591;28;20132;-68
2022/12/12 01:09:34;;;;;;;28.20;13.00;;;;;;;-5.35;100.00;95038.19;1047260;28;20020;-67
2022/12/12 01:10:05;;;;;;;27.90;13.00;;;;;;;-5.35;100.00;95036.41;1047115;28;20017;-67
2022/12/12 01:10:35;;;;;;;24.92;12.00;;;;;;;-5.34;100.00;95045.66;1043045;28;20502;-67
2022/12/12 01:11:06;;;;;;;31.47;13.43;;;;;;;-5.38;100.00;95039.31;1044686;28;20029;-70
2022/12/12 01:11:37;;;;;;;26.57;12.87;;;;;;;-5.35;100.00;95043.28;1047210;28;20028;-68
2022/12/12 01:12:07;;;;;;;28.20;13.10;;;;;;;-5.34;100.00;95037.19;1047488;28;20569;-67
2022/12/12 01:12:38;;;;;;;28.50;13.47;;;;;;;-5.33;100.00;95037.03;1046379;28;20056;-72
2022/12/12 01:13:08;;;;;;;27.80;13.13;;;;;;;-5.33;100.00;95043.88;1051263;28;20349;-69
2022/12/12 01:13:39;;;;;;;23.77;11.80;;;;;;;-5.36;100.00;95041.72;1051718;28;20028;-68
2022/12/12 01:14:09;;;;;;;23.73;12.70;;;;;;;-5.35;100.00;95036.41;1047176;28;20024;-68
2022/12/12 01:14:40;;;;;;;24.73;11.97;;;;;;;-5.35;100.00;95043.28;1047063;28;20112;-68
2022/12/12 01:15:10;;;;;;;24.07;12.23;;;;;;;-5.38;100.00;95041.88;1039135;28;20026;-68
2022/12/12 01:15:44;;;;;;;24.63;12.67;;;;;;;-5.41;100.00;95041.44;1039063;28;20013;-69
2022/12/12 01:16:14;;;;;;;28.00;13.48;;;;;;;-5.41;100.00;95038.91;1043161;28;20024;-67
2022/12/12 01:16:45;;;;;;;25.47;13.43;;;;;;;-5.44;100.00;95040.03;1044317;28;20416;-67
2022/12/12 01:17:15;;;;;;;29.17;12.77;;;;;;;-5.41;100.00;95044.00;1051280;28;20032;-69
2022/12/12 01:17:49;;;;;;;23.47;12.47;;;;;;;-5.42;100.00;95042.44;1043087;28;20541;-67
2022/12/12 01:18:19;;;;;;;31.98;13.48;;;;;;;-5.46;100.00;95042.78;1043108;28;20047;-67
2022/12/12 01:18:52;;;;;;;24.23;12.33;;;;;;;-5.44;100.00;95045.16;1043540;28;20029;-68
2022/12/12 01:19:23;;;;;;;26.98;13.20;;;;;;;-5.48;100.00;95039.63;1048256;28;20520;-69
2022/12/12 01:19:53;;;;;;;27.07;12.60;;;;;;;-5.57;100.00;95040.69;1051584;28;20043;-67
2022/12/12 01:20:25;;;;;;;27.70;12.67;;;;;;;-5.55;100.00;95038.75;1052026;28;20036;-72
2022/12/12 01:20:58;;;;;;;24.55;12.07;;;;;;;-5.54;100.00;95042.88;1047403;28;20111;-69
2022/12/12 01:21:29;;;;;;;23.83;12.33;;;;;;;-5.55;100.00;95041.31;1047144;28;20056;-67
2022/12/12 01:21:59;;;;;;;28.40;12.47;;;;;;;-5.53;100.00;95036.81;1043339;28;20017;-67
2022/12/12 01:22:30;;;;;;;24.00;13.10;;;;;;;-5.50;100.00;95041.56;1042283;28;20033;-67
2022/12/12 01:23:00;;;;;;;29.87;13.57;;;;;;;-5.49;100.00;95047.47;1048717;28;20048;-72
2022/12/12 01:23:31;;;;;;;24.70;11.87;;;;;;;-5.49;100.00;95039.81;1051391;28;20535;-68
2022/12/12 01:24:01;;;;;;;27.90;13.13;;;;;;;-5.47;100.00;95040.41;1051323;28;20491;-67
2022/12/12 01:24:32;;;;;;;23.07;12.70;;;;;;;-5.48;100.00;95043.94;1047291;28;20109;-69
2022/12/12 01:25:05;;;;;;;25.47;11.97;;;;;;;-5.48;100.00;95039.63;1042972;28;20045;-68
2022/12/12 01:25:36;;;;;;;22.85;11.25;;;;;;;-5.48;100.00;95037.06;1042692;28;20040;-67
2022/12/12 01:26:08;;;;;;;28.53;13.03;;;;;;;-5.48;100.00;95039.63;1039542;28;20546;-69
2022/12/12 01:26:39;;;;;;;28.95;12.77;;;;;;;-5.48;100.00;95043.94;1043675;28;20017;-69
2022/12/12 01:27:09;;;;;;;26.20;13.00;;;;;;;-5.48;100.00;95042.16;1047605;28;20024;-67
2022/12/12 01:27:40;;;;;;;27.30;13.27;;;;;;;-5.51;100.00;95046.84;1051247;28;20020;-67
2022/12/12 01:28:10;;;;;;;26.23;12.93;;;;;;;-5.50;100.00;95041.56;1051076;28;20016;-71
2022/12/12 01:28:41;;;;;;;23.93;12.20;;;;;;;-5.48;100.00;95044.72;1051562;28;20111;-70
2022/12/12 01:29:12;;;;;;;28.07;12.80;;;;;;;-5.47;100.00;95050.63;1051310;28;20027;-68
2022/12/12 01:29:42;;;;;;;24.97;12.20;;;;;;;-5.48;100.00;95047.28;1047056;28;20012;-69
2022/12/12 01:30:17;;;;;;;27.67;12.70;;;;;;;-5.48;100.00;95049.84;1051350;28;20024;-69
2022/12/12 01:30:47;;;;;;;30.95;13.68;;;;;;;-5.45;100.00;95046.13;1042948;28;20051;-67
2022/12/12 01:31:18;;;;;;;26.50;12.93;;;;;;;-5.46;100.00;95047.91;1039661;28;20558;-67
2022/12/12 01:31:49;;;;;;;24.23;12.50;;;;;;;-5.45;100.00;95043.56;1038786;28;20029;-69
2022/12/12 01:32:19;;;;;;;29.30;13.30;;;;;;;-5.43;100.00;95048.50;1038592;28;20120;-68
2022/12/12 01:32:50;;;;;;;24.17;12.60;;;;;;;-5.43;100.00;95048.50;1047387;28;20024;-68
2022/12/12 01:33:20;;;;;;;28.43;13.60;;;;;;;-5.41;100.00;95046.56;1051201;28;20012;-67
2022/12/12 01:33:51;;;;;;;28.47;13.83;;;;;;;-5.39;100.00;95047.19;1048458;28;20024;-68
2022/12/12 01:34:21;;;;;;;24.23;12.70;;;;;;;-5.39;100.00;95044.63;1043206;28;20429;-67
2022/12/12 01:34:52;;;;;;;24.90;12.47;;;;;;;-5.43;100.00;95048.50;1043009;28;20020;-70
2022/12/12 01:35:22;;;;;;;23.10;12.47;;;;;;;-5.46;100.00;95050.47;1044486;28;20056;-68
2022/12/12 01:35:53;;;;;;;27.57;12.53;;;;;;;-5.49;100.00;95048.25;1051357;28;20012;-68
2022/12/12 01:36:23;;;;;;;21.00;12.10;;;;;;;-5.49;100.00;95052.59;1051584;28;20020;-68
2022/12/12 01:36:54;;;;;;;27.47;12.37;;;;;;;-5.51;100.00;95047.63;1051604;28;20020;-69
2022/12/12 01:37:24;;;;;;;25.23;12.37;;;;;;;-5.53;100.00;95048.81;1047096;28;20091;-68
2022/12/12 01:37:55;;;;;;;24.47;12.87;;;;;;;-5.54;100.00;95050.56;1038811;28;20053;-69
2022/12/12 01:38:25;;;;;;;26.77;12.53;;;;;;;-5.56;100.00;95049.16;1039116;28;20049;-67
2022/12/12 01:38:56;;;;;;;26.90;12.37;;;;;;;-5.60;100.00;95048.72;1038812;28;20030;-71
2022/12/12 01:39:26;;;;;;;25.17;13.03;;;;;;;-5.55;100.00;95051.53;1043542;28;20025;-68
2022/12/12 01:39:57;;;;;;;24.53;12.07;;;;;;;-5.57;100.00;95050.91;1051341;28;20094;-68
2022/12/12 01:40:29;;;;;;;27.83;12.50;;;;;;;-5.58;100.00;95054.44;1051105;28;20540;-67
2022/12/12 01:40:59;;;;;;;25.80;13.15;;;;;;;-5.61;100.00;95049.69;1050260;28;20036;-69
2022/12/12 01:41:30;;;;;;;26.87;13.07;;;;;;;-5.60;100.00;95048.72;1051231;28;20100;-70
2022/12/12 01:42:01;;;;;;;25.07;12.43;;;;;;;-5.54;100.00;95053.09;1051313;28;20082;-68
2022/12/12 01:42:31;;;;;;;27.37;12.63;;;;;;;-5.53;100.00;95052.16;1050394;28;20031;-68
2022/12/12 01:43:08;;;;;;;23.17;12.50;;;;;;;-5.55;100.00;95048.97;1043144;28;20013;-67
2022/12/12 01:43:38;;;;;;;23.98;12.25;;;;;;;-5.55;100.00;95055.84;1039193;28;20028;-70
2022/12/12 01:44:36;;;;;;;30.63;13.13;;;;;;;-5.55;100.00;95055.84;1038935;28;20148;-71
2022/12/12 01:45:07;;;;;;;26.05;12.15;;;;;;;-5.57;100.00;95055.22;1043500;28;20486;-70
2022/12/12 01:45:56;;;;;;;27.13;12.93;;;;;;;-5.58;100.00;95054.44;1047062;28;20027;-71
2022/12/12 01:46:34;;;;;;;25.52;12.05;;;;;;;-5.60;100.00;95053.84;1047270;28;20082;-69
2022/12/12 01:47:04;;;;;;;24.52;11.75;;;;;;;-5.54;100.00;95055.66;1042419;28;20554;-68
2022/12/12 01:47:35;;;;;;;27.63;12.87;;;;;;;-5.56;100.00;95055.06;1042582;28;20036;-71
2022/12/12 01:48:06;;;;;;;26.97;12.37;;;;;;;-5.55;100.00;95054.09;1042566;28;20067;-70
2022/12/12 01:48:54;;;;;;;25.97;13.03;;;;;;;-5.62;100.00;95055.00;1039014;28;20278;-68
2022/12/12 01:49:25;;;;;;;24.70;11.57;;;;;;;-5.66;100.00;95058.88;1049706;28;20017;-67
2022/12/12 01:50:01;;;;;;;27.73;13.00;;;;;;;-5.63;100.00;95051.66;1047023;28;20039;-68
2022/12/12 01:50:32;;;;;;;26.77;12.45;;;;;;;-5.65;100.00;95052.78;1046500;28;20051;-69
2022/12/12 01:51:08;;;;;;;25.57;12.10;;;;;;;-5.64;100.00;95054.38;1051150;28;20039;-66
2022/12/12 01:51:41;;;;;;;25.58;12.48;;;;;;;-5.66;100.00;95057.13;1044512;28;20074;-69
2022/12/12 01:52:15;;;;;;;26.73;12.60;;;;;;;-5.64;100.00;95054.38;1042264;28;20024;-71
2022/12/12 01:52:46;;;;;;;24.02;11.93;;;;;;;-5.64;100.00;95055.16;1042417;28;20094;-71
2022/12/12 01:53:17;;;;;;;25.80;13.27;;;;;;;-5.66;100.00;95052.00;1044334;28;20021;-67
2022/12/12 01:53:48;;;;;;;24.63;12.43;;;;;;;-5.71;100.00;95051.72;1047542;28;20407;-68
2022/12/12 01:54:23;;;;;;;25.85;12.60;;;;;;;-5.70;100.00;95056.69;1042740;28;20021;-68
2022/12/12 01:54:56;;;;;;;23.80;12.10;;;;;;;-5.80;100.00;95027.25;1038640;28;20429;-68
2022/12/12 01:55:27;;;;;;;25.23;13.07;;;;;;;-5.66;100.00;95052.00;1034501;28;20021;-67
2022/12/12 01:55:57;;;;;;;27.33;13.43;;;;;;;-5.66;100.00;95052.00;1036852;28;20859;-66
2022/12/12 01:56:28;;;;;;;26.33;13.40;;;;;;;-5.66;100.00;95052.00;1043990;28;20021;-67
2022/12/12 01:57:01;;;;;;;23.43;12.10;;;;;;;-5.66;100.00;95052.00;1038737;28;20140;-69
2022/12/12 01:57:35;;;;;;;22.27;12.23;;;;;;;-5.63;100.00;95055.94;1038809;28;20025;-70
2022/12/12 01:58:05;;;;;;;31.20;13.70;;;;;;;-5.68;100.00;95054.72;1030166;28;20038;-69
2022/12/12 01:58:35;;;;;;;27.90;12.83;;;;;;;-5.67;100.00;95050.41;1033452;28;20389;-69
2022/12/12 01:59:07;;;;;;;25.07;13.17;;;;;;;-5.73;100.00;95056.25;1038270;28;20021;-69
2022/12/12 01:59:38;;;;;;;23.70;12.30;;;;;;;-5.74;100.00;95060.53;1043707;28;20032;-70
2022/12/12 02:00:09;;;;;;;25.70;12.38;;;;;;;-5.70;100.00;95055.84;1048636;28;20047;-69
2022/12/12 02:00:40;;;;;;;27.80;12.07;;;;;;;-5.67;100.00;95052.94;1048861;28;20106;-69
2022/12/12 02:01:10;;;;;;;26.60;13.47;;;;;;;-5.71;100.00;95051.72;1052290;28;20469;-69
2022/12/12 02:01:41;;;;;;;24.87;12.70;;;;;;;-5.68;100.00;95054.72;1048928;28;20025;-69
2022/12/12 02:02:11;;;;;;;23.30;13.10;;;;;;;-5.68;100.00;95046.28;1047845;28;20418;-68
2022/12/12 02:02:42;;;;;;;28.67;13.40;;;;;;;-5.68;100.00;95056.50;1043986;28;20029;-73
2022/12/12 02:03:12;;;;;;;24.80;12.50;;;;;;;-5.75;100.00;95056.41;1039999;28;20051;-68
2022/12/12 02:03:43;;;;;;;27.07;12.97;;;;;;;-5.72;100.00;95061.16;1044250;28;20032;-67
2022/12/12 02:04:14;;;;;;;24.60;12.93;;;;;;;-5.71;100.00;95059.41;1044381;28;20027;-67
2022/12/12 02:04:44;;;;;;;25.97;12.77;;;;;;;-5.70;100.00;95061.78;1040331;28;20025;-67
2022/12/12 02:05:27;;;;;;;25.10;12.97;;;;;;;-5.78;100.00;95038.88;1040055;28;20071;-69
2022/12/12 02:05:59;;;;;;;25.83;12.13;;;;;;;-5.64;100.00;95060.25;1037561;28;20033;-68
2022/12/12 02:06:29;;;;;;;22.65;11.95;;;;;;;-5.61;100.00;95054.00;1037937;28;20025;-69
2022/12/12 02:07:02;;;;;;;24.83;12.73;;;;;;;-5.62;100.00;95057.53;1042231;28;20039;-69
2022/12/12 02:07:36;;;;;;;25.02;12.95;;;;;;;-5.63;100.00;95061.88;1040742;28;20032;-68
2022/12/12 02:08:06;;;;;;;26.60;13.43;;;;;;;-5.64;100.00;95065.38;1040842;28;20033;-68
2022/12/12 02:08:37;;;;;;;25.20;13.20;;;;;;;-5.64;100.00;95055.16;1045070;28;20036;-67
2022/12/12 02:09:09;;;;;;;28.63;13.03;;;;;;;-5.78;100.00;95035.53;1040312;28;20147;-67
2022/12/12 02:09:39;;;;;;;27.23;12.38;;;;;;;-5.62;100.00;95055.78;1040001;28;20108;-67
2022/12/12 02:10:10;;;;;;;24.80;13.07;;;;;;;-5.59;100.00;95057.19;1040364;28;20495;-70
2022/12/12 02:10:40;;;;;;;28.23;13.17;;;;;;;-5.61;100.00;95057.34;1040654;28;20029;-67
2022/12/12 02:11:11;;;;;;;23.27;12.70;;;;;;;-5.60;100.00;95058.13;1044244;28;20513;-67
2022/12/12 02:11:44;;;;;;;24.40;13.88;;;;;;;-5.62;100.00;95057.53;1044293;28;20028;-72
2022/12/12 02:12:18;;;;;;;21.70;12.55;;;;;;;-5.61;100.00;95062.47;1044697;28;20115;-69
2022/12/12 02:12:48;;;;;;;26.42;12.32;;;;;;;-5.60;100.00;95056.41;1044826;28;20024;-67
2022/12/12 02:13:23;;;;;;;26.23;13.53;;;;;;;-5.65;100.00;95058.69;1044263;28;20037;-69
2022/12/12 02:13:54;;;;;;;23.73;12.55;;;;;;;-5.64;100.00;95060.25;1037348;28;20029;-68
2022/12/12 02:14:41;;;;;;;26.13;12.93;;;;;;;-5.61;100.00;95059.13;1040823;28;20033;-68
2022/12/12 02:15:11;;;;;;;28.27;12.98;;;;;;;-5.61;100.00;95059.91;1039280;28;20021;-67
2022/12/12 02:16:23;;;;;;;28.73;13.37;;;;;;;-5.61;100.00;95054.00;1041111;28;20403;-67
2022/12/12 02:16:53;;;;;;;;;;;;;;;-5.59;100.00;95060.53;1039634;28;20037;-67
2022/12/12 02:17:32;;;;;;;22.43;11.20;;;;;;;-5.58;100.00;95059.56;1044088;28;19970;-68
2022/12/12 02:18:15;;;;;;;25.45;12.73;;;;;;;-5.58;100.00;95063.88;1049592;28;20036;-67
2022/12/12 02:18:57;;;;;;;26.50;12.73;;;;;;;-5.60;100.00;95063.25;1051198;28;20115;-67
2022/12/12 02:19:46;;;;;;;25.92;13.63;;;;;;;-5.63;100.00;95061.88;1048377;28;20036;-69
2022/12/12 02:20:31;;;;;;;26.85;12.15;;;;;;;-5.65;100.00;95061.25;1048301;28;20109;-68
2022/12/12 02:21:32;;;;;;;26.17;11.80;;;;;;;-5.64;100.00;95065.38;1044476;28;20411;-67
2022/12/12 02:22:08;;;;;;;23.30;11.23;;;;;;;-5.64;100.00;95065.38;1048938;28;20032;-68
2022/12/12 02:22:57;;;;;;;25.90;11.82;;;;;;;-5.63;100.00;95061.88;1040878;28;20021;-69
2022/12/12 02:23:39;;;;;;;24.13;11.80;;;;;;;-5.65;100.00;95071.47;1044630;28;20059;-67
2022/12/12 02:25:04;;;;;;;29.33;12.75;;;;;;;-5.66;100.00;95069.88;1044977;28;20082;-67
2022/12/12 02:26:07;;;;;;;26.40;11.80;;;;;;;-5.65;100.00;95061.25;1047961;28;20429;-69
2022/12/12 02:26:49;;;;;;;25.30;11.55;;;;;;;-5.62;100.00;95071.09;1047469;28;20489;-68
2022/12/12 02:27:36;;;;;;;24.27;12.23;;;;;;;-5.62;100.00;95063.44;1044679;28;20025;-67